sensor_id;sensor_type;location;lat;lon;timestamp;pressure;altitude;pressure_sealevel;temperature;humidity
74327;BME280;62745;51.060;13.786;2023-10-08T00:02:15;100204.91;;;18.83;84.31
74327;BME280;62745;51.060;13.786;2023-10-08T00:04:47;100194.06;;;18.83;84.45
74327;BME280;62745;51.060;13.786;2023-10-08T00:07:12;100181.66;;;18.87;84.49
74327;BME280;62745;51.060;13.786;2023-10-08T00:09:37;100188.41;;;18.84;85.31
74327;BME280;62745;51.060;13.786;2023-10-08T00:12:03;100181.91;;;18.85;85.10
74327;BME280;62745;51.060;13.786;2023-10-08T00:14:29;100171.41;;;18.89;85.19
74327;BME280;62745;51.060;13.786;2023-10-08T00:16:54;100191.09;;;18.84;86.10
74327;BME280;62745;51.060;13.786;2023-10-08T00:19:19;100180.78;;;18.81;86.92
74327;BME280;62745;51.060;13.786;2023-10-08T00:21:46;100192.34;;;18.77;87.42
74327;BME280;62745;51.060;13.786;2023-10-08T00:24:13;100192.09;;;18.78;86.94
74327;BME280;62745;51.060;13.786;2023-10-08T00:26:39;100186.91;;;18.77;87.44
74327;BME280;62745;51.060;13.786;2023-10-08T00:29:06;100182.75;;;18.69;90.26
74327;BME280;62745;51.060;13.786;2023-10-08T00:31:42;100181.34;;;18.50;92.25
74327;BME280;62745;51.060;13.786;2023-10-08T00:34:10;100183.88;;;18.40;95.37
74327;BME280;62745;51.060;13.786;2023-10-08T00:36:41;100177.00;;;18.32;96.92
74327;BME280;62745;51.060;13.786;2023-10-08T00:39:07;100175.41;;;18.19;98.86
74327;BME280;62745;51.060;13.786;2023-10-08T00:41:45;100191.63;;;18.19;98.05
74327;BME280;62745;51.060;13.786;2023-10-08T00:44:12;100178.13;;;18.19;98.48
74327;BME280;62745;51.060;13.786;2023-10-08T00:46:47;100183.50;;;18.02;100.00
74327;BME280;62745;51.060;13.786;2023-10-08T00:49:20;100190.44;;;17.98;100.00
74327;BME280;62745;51.060;13.786;2023-10-08T00:51:47;100179.28;;;17.95;100.00
74327;BME280;62745;51.060;13.786;2023-10-08T00:54:13;100181.81;;;17.85;100.00
74327;BME280;62745;51.060;13.786;2023-10-08T00:56:45;100183.25;;;17.76;100.00
74327;BME280;62745;51.060;13.786;2023-10-08T00:59:15;100188.31;;;17.60;100.00
74327;BME280;62745;51.060;13.786;2023-10-08T01:01:42;100179.19;;;17.50;100.00
74327;BME280;62745;51.060;13.786;2023-10-08T01:04:16;100185.91;;;17.47;100.00
74327;BME280;62745;51.060;13.786;2023-10-08T01:06:41;100192.34;;;17.46;100.00
74327;BME280;62745;51.060;13.786;2023-10-08T01:09:06;100199.75;;;17.39;100.00
74327;BME280;62745;51.060;13.786;2023-10-08T01:11:43;100197.56;;;17.24;100.00
74327;BME280;62745;51.060;13.786;2023-10-08T01:14:15;100203.09;;;17.18;100.00
74327;BME280;62745;51.060;13.786;2023-10-08T01:16:41;100199.69;;;17.10;100.00
74327;BME280;62745;51.060;13.786;2023-10-08T01:19:11;100214.47;;;17.08;100.00
74327;BME280;62745;51.060;13.786;2023-10-08T01:21:39;100209.06;;;16.96;100.00
74327;BME280;62745;51.060;13.786;2023-10-08T01:24:05;100220.22;;;16.88;100.00
74327;BME280;62745;51.060;13.786;2023-10-08T01:26:33;100227.97;;;16.73;100.00
74327;BME280;62745;51.060;13.786;2023-10-08T01:28:59;100217.72;;;16.63;100.00
74327;BME280;62745;51.060;13.786;2023-10-08T01:31:32;100225.91;;;16.57;100.00
74327;BME280;62745;51.060;13.786;2023-10-08T01:33:58;100233.41;;;16.54;100.00
74327;BME280;62745;51.060;13.786;2023-10-08T01:36:26;100219.19;;;16.36;100.00
74327;BME280;62745;51.060;13.786;2023-10-08T01:38:52;100238.13;;;16.29;100.00
74327;BME280;62745;51.060;13.786;2023-10-08T01:41:19;100245.03;;;16.25;100.00
74327;BME280;62745;51.060;13.786;2023-10-08T01:43:45;100255.25;;;16.23;100.00
74327;BME280;62745;51.060;13.786;2023-10-08T01:46:11;100247.97;;;16.23;100.00
74327;BME280;62745;51.060;13.786;2023-10-08T01:48:38;100251.59;;;16.17;100.00
74327;BME280;62745;51.060;13.786;2023-10-08T01:51:04;100260.56;;;16.11;100.00
74327;BME280;62745;51.060;13.786;2023-10-08T01:53:36;100267.22;;;15.79;100.00
74327;BME280;62745;51.060;13.786;2023-10-08T01:56:03;100280.84;;;15.84;100.00
74327;BME280;62745;51.060;13.786;2023-10-08T01:58:29;100286.69;;;15.62;100.00
74327;BME280;62745;51.060;13.786;2023-10-08T02:00:55;100285.81;;;15.44;100.00
74327;BME280;62745;51.060;13.786;2023-10-08T02:03:24;100276.81;;;15.13;100.00
74327;BME280;62745;51.060;13.786;2023-10-08T02:05:49;100280.63;;;14.74;100.00
74327;BME280;62745;51.060;13.786;2023-10-08T02:08:18;100287.56;;;14.63;100.00
74327;BME280;62745;51.060;13.786;2023-10-08T02:10:44;100313.88;;;14.55;100.00
74327;BME280;62745;51.060;13.786;2023-10-08T02:13:13;100313.50;;;14.38;100.00
74327;BME280;62745;51.060;13.786;2023-10-08T02:15:49;100307.53;;;13.98;100.00
74327;BME280;62745;51.060;13.786;2023-10-08T02:18:16;100335.41;;;13.90;100.00
74327;BME280;62745;51.060;13.786;2023-10-08T02:20:42;100339.31;;;14.01;100.00
74327;BME280;62745;51.060;13.786;2023-10-08T02:23:08;100325.34;;;13.79;100.00
74327;BME280;62745;51.060;13.786;2023-10-08T02:25:37;100328.66;;;13.74;100.00
74327;BME280;62745;51.060;13.786;2023-10-08T02:28:03;100349.97;;;13.63;100.00
74327;BME280;62745;51.060;13.786;2023-10-08T02:30:29;100358.63;;;13.65;100.00
74327;BME280;62745;51.060;13.786;2023-10-08T02:32:54;100360.50;;;13.64;100.00
74327;BME280;62745;51.060;13.786;2023-10-08T02:35:19;100365.66;;;13.52;100.00
74327;BME280;62745;51.060;13.786;2023-10-08T02:37:44;100371.06;;;13.46;100.00
74327;BME280;62745;51.060;13.786;2023-10-08T02:40:11;100395.19;;;13.39;100.00
74327;BME280;62745;51.060;13.786;2023-10-08T02:42:51;100390.25;;;13.36;100.00
74327;BME280;62745;51.060;13.786;2023-10-08T02:45:23;100420.81;;;13.29;100.00
74327;BME280;62745;51.060;13.786;2023-10-08T02:47:50;100428.22;;;13.20;100.00
74327;BME280;62745;51.060;13.786;2023-10-08T02:50:19;100440.59;;;13.34;100.00
74327;BME280;62745;51.060;13.786;2023-10-08T02:52:44;100430.25;;;13.11;100.00
74327;BME280;62745;51.060;13.786;2023-10-08T02:55:12;100448.38;;;13.09;100.00
74327;BME280;62745;51.060;13.786;2023-10-08T02:57:53;100444.03;;;13.02;100.00
74327;BME280;62745;51.060;13.786;2023-10-08T03:00:18;100452.91;;;13.09;100.00
74327;BME280;62745;51.060;13.786;2023-10-08T03:02:45;100462.59;;;13.03;100.00
74327;BME280;62745;51.060;13.786;2023-10-08T03:05:11;100460.34;;;13.00;100.00
74327;BME280;62745;51.060;13.786;2023-10-08T03:07:38;100472.31;;;13.04;100.00
74327;BME280;62745;51.060;13.786;2023-10-08T03:10:05;100472.72;;;13.01;100.00
74327;BME280;62745;51.060;13.786;2023-10-08T03:12:32;100488.75;;;12.81;100.00
74327;BME280;62745;51.060;13.786;2023-10-08T03:14:58;100497.00;;;12.80;100.00
74327;BME280;62745;51.060;13.786;2023-10-08T03:17:38;100516.75;;;12.72;100.00
74327;BME280;62745;51.060;13.786;2023-10-08T03:20:15;100529.91;;;12.67;100.00
74327;BME280;62745;51.060;13.786;2023-10-08T03:22:59;100517.38;;;12.40;100.00
74327;BME280;62745;51.060;13.786;2023-10-08T03:25:24;100524.81;;;12.38;100.00
74327;BME280;62745;51.060;13.786;2023-10-08T03:27:50;100531.78;;;12.04;100.00
74327;BME280;62745;51.060;13.786;2023-10-08T03:30:16;100554.22;;;12.03;100.00
74327;BME280;62745;51.060;13.786;2023-10-08T03:32:44;100562.03;;;11.98;100.00
74327;BME280;62745;51.060;13.786;2023-10-08T03:35:10;100565.63;;;11.84;100.00
74327;BME280;62745;51.060;13.786;2023-10-08T03:37:35;100549.75;;;11.61;100.00
74327;BME280;62745;51.060;13.786;2023-10-08T03:40:07;100577.56;;;11.45;100.00
74327;BME280;62745;51.060;13.786;2023-10-08T03:42:50;100596.84;;;11.40;100.00
74327;BME280;62745;51.060;13.786;2023-10-08T03:45:15;100604.38;;;11.15;100.00
74327;BME280;62745;51.060;13.786;2023-10-08T03:47:48;100606.47;;;11.20;100.00
74327;BME280;62745;51.060;13.786;2023-10-08T03:50:28;100602.28;;;11.11;100.00
74327;BME280;62745;51.060;13.786;2023-10-08T03:53:05;100617.94;;;11.14;100.00
74327;BME280;62745;51.060;13.786;2023-10-08T03:55:36;100614.81;;;11.10;100.00
74327;BME280;62745;51.060;13.786;2023-10-08T03:58:04;100614.53;;;11.05;100.00
74327;BME280;62745;51.060;13.786;2023-10-08T04:00:29;100624.50;;;10.82;100.00
74327;BME280;62745;51.060;13.786;2023-10-08T04:02:57;100636.94;;;10.90;100.00
74327;BME280;62745;51.060;13.786;2023-10-08T04:05:27;100644.22;;;10.96;100.00
74327;BME280;62745;51.060;13.786;2023-10-08T04:08:08;100639.53;;;10.83;100.00
74327;BME280;62745;51.060;13.786;2023-10-08T04:10:45;100661.16;;;10.73;100.00
74327;BME280;62745;51.060;13.786;2023-10-08T04:13:10;100649.94;;;10.78;100.00
74327;BME280;62745;51.060;13.786;2023-10-08T04:15:36;100632.59;;;10.74;100.00
74327;BME280;62745;51.060;13.786;2023-10-08T04:18:09;100625.97;;;10.70;100.00
74327;BME280;62745;51.060;13.786;2023-10-08T04:20:35;100634.59;;;10.57;100.00
74327;BME280;62745;51.060;13.786;2023-10-08T04:23:07;100633.34;;;10.68;100.00
74327;BME280;62745;51.060;13.786;2023-10-08T04:25:43;100637.75;;;10.46;100.00
74327;BME280;62745;51.060;13.786;2023-10-08T04:28:08;100650.09;;;10.47;100.00
74327;BME280;62745;51.060;13.786;2023-10-08T04:30:39;100651.56;;;10.49;100.00
74327;BME280;62745;51.060;13.786;2023-10-08T04:33:07;100655.88;;;10.50;100.00
74327;BME280;62745;51.060;13.786;2023-10-08T04:35:37;100653.06;;;10.67;100.00
74327;BME280;62745;51.060;13.786;2023-10-08T04:38:20;100651.97;;;10.76;100.00
74327;BME280;62745;51.060;13.786;2023-10-08T04:40:51;100663.16;;;10.57;100.00
74327;BME280;62745;51.060;13.786;2023-10-08T04:43:24;100657.19;;;10.54;100.00
74327;BME280;62745;51.060;13.786;2023-10-08T04:45:59;100664.00;;;10.57;100.00
74327;BME280;62745;51.060;13.786;2023-10-08T04:48:30;100678.19;;;10.58;100.00
74327;BME280;62745;51.060;13.786;2023-10-08T04:50:58;100678.00;;;10.44;100.00
74327;BME280;62745;51.060;13.786;2023-10-08T04:53:29;100687.47;;;10.47;100.00
74327;BME280;62745;51.060;13.786;2023-10-08T04:56:05;100717.91;;;10.61;100.00
74327;BME280;62745;51.060;13.786;2023-10-08T04:58:32;100727.41;;;10.63;100.00
74327;BME280;62745;51.060;13.786;2023-10-08T05:01:08;100740.69;;;10.71;100.00
74327;BME280;62745;51.060;13.786;2023-10-08T05:03:47;100735.19;;;10.50;100.00
74327;BME280;62745;51.060;13.786;2023-10-08T05:06:32;100732.66;;;10.34;100.00
74327;BME280;62745;51.060;13.786;2023-10-08T05:09:03;100734.28;;;10.58;100.00
74327;BME280;62745;51.060;13.786;2023-10-08T05:11:38;100749.66;;;10.78;100.00
74327;BME280;62745;51.060;13.786;2023-10-08T05:14:17;100755.19;;;10.54;100.00
74327;BME280;62745;51.060;13.786;2023-10-08T05:16:59;100752.50;;;10.54;100.00
74327;BME280;62745;51.060;13.786;2023-10-08T05:19:42;100753.38;;;10.69;100.00
74327;BME280;62745;51.060;13.786;2023-10-08T05:22:23;100762.81;;;10.80;100.00
74327;BME280;62745;51.060;13.786;2023-10-08T05:24:56;100762.81;;;10.42;100.00
74327;BME280;62745;51.060;13.786;2023-10-08T05:27:44;100762.38;;;10.53;100.00
74327;BME280;62745;51.060;13.786;2023-10-08T05:30:13;100767.28;;;10.65;100.00
74327;BME280;62745;51.060;13.786;2023-10-08T05:32:45;100779.09;;;10.70;100.00
74327;BME280;62745;51.060;13.786;2023-10-08T05:35:30;100771.53;;;10.59;100.00
74327;BME280;62745;51.060;13.786;2023-10-08T05:38:12;100783.16;;;10.66;100.00
74327;BME280;62745;51.060;13.786;2023-10-08T05:40:41;100783.03;;;10.60;100.00
74327;BME280;62745;51.060;13.786;2023-10-08T05:43:32;100793.84;;;10.43;100.00
74327;BME280;62745;51.060;13.786;2023-10-08T05:48:44;100794.50;;;10.45;100.00
74327;BME280;62745;51.060;13.786;2023-10-08T05:51:27;100804.34;;;10.45;100.00
74327;BME280;62745;51.060;13.786;2023-10-08T05:54:19;100817.00;;;10.51;100.00
74327;BME280;62745;51.060;13.786;2023-10-08T05:56:54;100820.50;;;10.20;100.00
74327;BME280;62745;51.060;13.786;2023-10-08T05:59:43;100834.94;;;10.03;100.00
74327;BME280;62745;51.060;13.786;2023-10-08T06:02:21;100824.16;;;10.19;100.00
74327;BME280;62745;51.060;13.786;2023-10-08T06:07:47;100837.94;;;10.39;100.00
74327;BME280;62745;51.060;13.786;2023-10-08T06:13:07;100857.16;;;10.35;100.00
74327;BME280;62745;51.060;13.786;2023-10-08T06:15:42;100846.78;;;10.40;100.00
74327;BME280;62745;51.060;13.786;2023-10-08T06:18:18;100835.63;;;10.36;100.00
74327;BME280;62745;51.060;13.786;2023-10-08T06:20:46;100838.38;;;10.51;100.00
74327;BME280;62745;51.060;13.786;2023-10-08T06:23:13;100858.00;;;10.58;100.00
74327;BME280;62745;51.060;13.786;2023-10-08T06:25:43;100860.06;;;10.79;100.00
74327;BME280;62745;51.060;13.786;2023-10-08T06:28:16;100859.88;;;10.80;100.00
74327;BME280;62745;51.060;13.786;2023-10-08T06:30:45;100857.78;;;10.68;100.00
74327;BME280;62745;51.060;13.786;2023-10-08T06:33:10;100865.41;;;10.79;100.00
74327;BME280;62745;51.060;13.786;2023-10-08T06:35:35;100847.38;;;10.96;100.00
74327;BME280;62745;51.060;13.786;2023-10-08T06:38:01;100867.63;;;10.90;100.00
74327;BME280;62745;51.060;13.786;2023-10-08T06:40:33;100878.97;;;10.46;100.00
74327;BME280;62745;51.060;13.786;2023-10-08T06:43:02;100878.94;;;10.77;100.00
74327;BME280;62745;51.060;13.786;2023-10-08T06:45:37;100881.72;;;10.84;100.00
74327;BME280;62745;51.060;13.786;2023-10-08T06:48:02;100883.09;;;10.80;100.00
74327;BME280;62745;51.060;13.786;2023-10-08T06:50:34;100893.97;;;10.78;100.00
74327;BME280;62745;51.060;13.786;2023-10-08T06:53:01;100907.56;;;11.14;100.00
74327;BME280;62745;51.060;13.786;2023-10-08T06:55:32;100921.16;;;11.28;100.00
74327;BME280;62745;51.060;13.786;2023-10-08T06:57:59;100918.72;;;11.18;100.00
74327;BME280;62745;51.060;13.786;2023-10-08T07:00:25;100930.34;;;11.25;100.00
74327;BME280;62745;51.060;13.786;2023-10-08T07:03:04;100933.56;;;11.58;100.00
74327;BME280;62745;51.060;13.786;2023-10-08T07:05:33;100920.94;;;11.67;100.00
74327;BME280;62745;51.060;13.786;2023-10-08T07:08:02;100923.25;;;11.70;100.00
74327;BME280;62745;51.060;13.786;2023-10-08T07:10:32;100933.38;;;11.22;100.00
74327;BME280;62745;51.060;13.786;2023-10-08T07:12:59;100943.38;;;11.28;100.00
74327;BME280;62745;51.060;13.786;2023-10-08T07:15:24;100949.28;;;11.38;100.00
74327;BME280;62745;51.060;13.786;2023-10-08T07:17:51;100943.63;;;11.56;100.00
74327;BME280;62745;51.060;13.786;2023-10-08T07:20:17;100941.69;;;11.50;100.00
74327;BME280;62745;51.060;13.786;2023-10-08T07:22:46;100949.94;;;11.40;100.00
74327;BME280;62745;51.060;13.786;2023-10-08T07:25:15;100963.31;;;11.40;100.00
74327;BME280;62745;51.060;13.786;2023-10-08T07:27:45;100970.09;;;11.51;100.00
74327;BME280;62745;51.060;13.786;2023-10-08T07:30:12;100966.53;;;11.73;100.00
74327;BME280;62745;51.060;13.786;2023-10-08T07:32:38;100969.72;;;11.92;100.00
74327;BME280;62745;51.060;13.786;2023-10-08T07:35:04;100976.69;;;12.01;100.00
74327;BME280;62745;51.060;13.786;2023-10-08T07:37:45;100991.53;;;11.89;100.00
74327;BME280;62745;51.060;13.786;2023-10-08T07:40:11;100991.78;;;12.68;100.00
74327;BME280;62745;51.060;13.786;2023-10-08T07:42:38;100992.75;;;12.60;100.00
74327;BME280;62745;51.060;13.786;2023-10-08T07:45:03;101006.44;;;12.50;100.00
74327;BME280;62745;51.060;13.786;2023-10-08T07:47:30;100996.16;;;12.24;100.00
74327;BME280;62745;51.060;13.786;2023-10-08T07:49:55;100993.50;;;11.95;100.00
74327;BME280;62745;51.060;13.786;2023-10-08T07:52:20;101018.84;;;11.84;100.00
74327;BME280;62745;51.060;13.786;2023-10-08T07:54:46;100999.75;;;11.87;100.00
74327;BME280;62745;51.060;13.786;2023-10-08T07:57:13;101008.06;;;12.07;100.00
74327;BME280;62745;51.060;13.786;2023-10-08T07:59:42;101008.97;;;11.85;100.00
74327;BME280;62745;51.060;13.786;2023-10-08T08:02:16;101001.84;;;11.92;100.00
74327;BME280;62745;51.060;13.786;2023-10-08T08:04:51;101010.09;;;12.05;100.00
74327;BME280;62745;51.060;13.786;2023-10-08T08:07:16;101032.31;;;11.91;100.00
74327;BME280;62745;51.060;13.786;2023-10-08T08:09:43;101047.38;;;11.92;100.00
74327;BME280;62745;51.060;13.786;2023-10-08T08:12:15;101055.34;;;11.54;100.00
74327;BME280;62745;51.060;13.786;2023-10-08T08:14:41;101057.72;;;11.80;100.00
74327;BME280;62745;51.060;13.786;2023-10-08T08:17:07;101060.41;;;11.49;100.00
74327;BME280;62745;51.060;13.786;2023-10-08T08:19:42;101055.38;;;11.31;100.00
74327;BME280;62745;51.060;13.786;2023-10-08T08:22:10;101050.69;;;11.25;100.00
74327;BME280;62745;51.060;13.786;2023-10-08T08:24:40;101058.66;;;11.10;100.00
74327;BME280;62745;51.060;13.786;2023-10-08T08:27:10;101062.84;;;11.05;100.00
74327;BME280;62745;51.060;13.786;2023-10-08T08:29:50;101060.78;;;10.92;100.00
74327;BME280;62745;51.060;13.786;2023-10-08T08:32:17;101052.31;;;10.80;100.00
74327;BME280;62745;51.060;13.786;2023-10-08T08:34:47;101058.66;;;10.71;100.00
74327;BME280;62745;51.060;13.786;2023-10-08T08:37:16;101058.00;;;10.69;100.00
74327;BME280;62745;51.060;13.786;2023-10-08T08:39:41;101055.38;;;10.61;100.00
74327;BME280;62745;51.060;13.786;2023-10-08T08:42:07;101049.75;;;10.48;100.00
74327;BME280;62745;51.060;13.786;2023-10-08T08:44:35;101059.38;;;10.57;100.00
74327;BME280;62745;51.060;13.786;2023-10-08T08:47:04;101060.38;;;10.56;100.00
74327;BME280;62745;51.060;13.786;2023-10-08T08:49:35;101064.41;;;10.52;100.00
74327;BME280;62745;51.060;13.786;2023-10-08T08:52:04;101067.53;;;10.72;100.00
74327;BME280;62745;51.060;13.786;2023-10-08T08:54:30;101066.78;;;10.94;100.00
74327;BME280;62745;51.060;13.786;2023-10-08T08:57:01;101069.56;;;11.01;100.00
74327;BME280;62745;51.060;13.786;2023-10-08T08:59:29;101074.66;;;11.19;100.00
74327;BME280;62745;51.060;13.786;2023-10-08T09:01:57;101075.50;;;11.19;100.00
74327;BME280;62745;51.060;13.786;2023-10-08T09:04:32;101083.75;;;11.09;100.00
74327;BME280;62745;51.060;13.786;2023-10-08T09:07:01;101079.47;;;11.23;100.00
74327;BME280;62745;51.060;13.786;2023-10-08T09:09:33;101081.28;;;11.31;100.00
74327;BME280;62745;51.060;13.786;2023-10-08T09:11:59;101084.78;;;11.54;100.00
74327;BME280;62745;51.060;13.786;2023-10-08T09:14:26;101091.81;;;11.55;100.00
74327;BME280;62745;51.060;13.786;2023-10-08T09:16:53;101097.22;;;11.70;100.00
74327;BME280;62745;51.060;13.786;2023-10-08T09:19:21;101095.28;;;11.87;100.00
74327;BME280;62745;51.060;13.786;2023-10-08T09:22:25;101096.28;;;11.63;100.00
74327;BME280;62745;51.060;13.786;2023-10-08T09:24:53;101107.28;;;11.68;100.00
74327;BME280;62745;51.060;13.786;2023-10-08T09:27:19;101105.66;;;11.59;100.00
74327;BME280;62745;51.060;13.786;2023-10-08T09:29:46;101102.97;;;11.59;100.00
74327;BME280;62745;51.060;13.786;2023-10-08T09:32:12;101095.81;;;11.59;100.00
74327;BME280;62745;51.060;13.786;2023-10-08T09:34:49;101107.94;;;11.47;100.00
74327;BME280;62745;51.060;13.786;2023-10-08T09:37:16;101112.63;;;11.68;100.00
74327;BME280;62745;51.060;13.786;2023-10-08T09:39:42;101123.06;;;11.86;100.00
74327;BME280;62745;51.060;13.786;2023-10-08T09:42:08;101121.47;;;11.77;100.00
74327;BME280;62745;51.060;13.786;2023-10-08T09:44:36;101126.72;;;11.93;100.00
74327;BME280;62745;51.060;13.786;2023-10-08T09:47:04;101128.47;;;11.78;100.00
74327;BME280;62745;51.060;13.786;2023-10-08T09:49:42;101133.41;;;11.89;100.00
74327;BME280;62745;51.060;13.786;2023-10-08T09:52:16;101138.25;;;11.93;100.00
74327;BME280;62745;51.060;13.786;2023-10-08T09:54:54;101139.13;;;12.09;100.00
74327;BME280;62745;51.060;13.786;2023-10-08T09:57:23;101142.47;;;12.48;100.00
74327;BME280;62745;51.060;13.786;2023-10-08T09:59:52;101147.25;;;12.53;100.00
74327;BME280;62745;51.060;13.786;2023-10-08T10:02:19;101142.19;;;12.73;100.00
74327;BME280;62745;51.060;13.786;2023-10-08T10:04:50;101148.75;;;12.70;100.00
74327;BME280;62745;51.060;13.786;2023-10-08T10:07:17;101147.66;;;12.94;100.00
74327;BME280;62745;51.060;13.786;2023-10-08T10:09:45;101157.16;;;13.41;100.00
74327;BME280;62745;51.060;13.786;2023-10-08T10:12:12;101155.41;;;13.48;100.00
74327;BME280;62745;51.060;13.786;2023-10-08T10:14:45;101166.97;;;13.48;100.00
74327;BME280;62745;51.060;13.786;2023-10-08T10:17:19;101160.44;;;13.21;100.00
74327;BME280;62745;51.060;13.786;2023-10-08T10:19:50;101156.72;;;13.22;100.00
74327;BME280;62745;51.060;13.786;2023-10-08T10:22:30;101159.13;;;13.03;100.00
74327;BME280;62745;51.060;13.786;2023-10-08T10:24:59;101165.41;;;12.80;100.00
74327;BME280;62745;51.060;13.786;2023-10-08T10:27:30;101164.03;;;13.29;100.00
74327;BME280;62745;51.060;13.786;2023-10-08T10:30:05;101164.09;;;13.50;100.00
74327;BME280;62745;51.060;13.786;2023-10-08T10:32:34;101161.88;;;13.75;100.00
74327;BME280;62745;51.060;13.786;2023-10-08T10:35:00;101163.66;;;14.10;100.00
74327;BME280;62745;51.060;13.786;2023-10-08T10:37:28;101159.03;;;14.75;100.00
74327;BME280;62745;51.060;13.786;2023-10-08T10:40:06;101154.78;;;14.94;100.00
74327;BME280;62745;51.060;13.786;2023-10-08T10:42:36;101164.78;;;15.00;100.00
74327;BME280;62745;51.060;13.786;2023-10-08T10:45:03;101168.84;;;14.89;100.00
74327;BME280;62745;51.060;13.786;2023-10-08T10:47:34;101168.56;;;14.78;100.00
74327;BME280;62745;51.060;13.786;2023-10-08T10:50:09;101158.94;;;15.31;100.00
74327;BME280;62745;51.060;13.786;2023-10-08T10:52:52;101165.44;;;15.56;100.00
74327;BME280;62745;51.060;13.786;2023-10-08T10:55:18;101161.66;;;14.96;100.00
74327;BME280;62745;51.060;13.786;2023-10-08T10:57:48;101165.84;;;14.71;100.00
74327;BME280;62745;51.060;13.786;2023-10-08T11:00:30;101165.91;;;14.07;100.00
74327;BME280;62745;51.060;13.786;2023-10-08T11:02:59;101155.44;;;14.40;100.00
74327;BME280;62745;51.060;13.786;2023-10-08T11:05:28;101159.31;;;14.52;100.00
74327;BME280;62745;51.060;13.786;2023-10-08T11:07:55;101156.75;;;14.72;100.00
74327;BME280;62745;51.060;13.786;2023-10-08T11:10:38;101158.13;;;15.37;100.00
74327;BME280;62745;51.060;13.786;2023-10-08T11:13:08;101173.38;;;15.17;100.00
74327;BME280;62745;51.060;13.786;2023-10-08T11:15:40;101158.06;;;15.65;100.00
74327;BME280;62745;51.060;13.786;2023-10-08T11:18:10;101170.59;;;16.32;100.00
74327;BME280;62745;51.060;13.786;2023-10-08T11:20:36;101166.34;;;15.77;100.00
74327;BME280;62745;51.060;13.786;2023-10-08T11:23:06;101171.69;;;15.16;100.00
74327;BME280;62745;51.060;13.786;2023-10-08T11:25:57;101173.72;;;15.55;100.00
74327;BME280;62745;51.060;13.786;2023-10-08T11:28:34;101173.50;;;15.56;100.00
74327;BME280;62745;51.060;13.786;2023-10-08T11:31:06;101177.84;;;15.51;100.00
74327;BME280;62745;51.060;13.786;2023-10-08T11:33:38;101168.88;;;15.37;100.00
74327;BME280;62745;51.060;13.786;2023-10-08T11:36:05;101165.50;;;15.76;100.00
74327;BME280;62745;51.060;13.786;2023-10-08T11:38:53;101174.50;;;16.23;96.47
74327;BME280;62745;51.060;13.786;2023-10-08T11:41:26;101156.81;;;15.26;96.44
74327;BME280;62745;51.060;13.786;2023-10-08T11:43:54;101157.97;;;15.58;94.63
74327;BME280;62745;51.060;13.786;2023-10-08T11:46:31;101150.41;;;15.95;92.27
74327;BME280;62745;51.060;13.786;2023-10-08T11:49:10;101149.59;;;16.74;89.43
74327;BME280;62745;51.060;13.786;2023-10-08T11:51:43;101147.47;;;16.96;87.35
74327;BME280;62745;51.060;13.786;2023-10-08T11:54:09;101144.72;;;17.09;85.34
74327;BME280;62745;51.060;13.786;2023-10-08T11:56:37;101143.22;;;17.26;87.93
74327;BME280;62745;51.060;13.786;2023-10-08T11:59:03;101140.56;;;17.96;85.83
74327;BME280;62745;51.060;13.786;2023-10-08T12:01:36;101141.59;;;17.70;85.27
74327;BME280;62745;51.060;13.786;2023-10-08T12:04:03;101137.25;;;17.94;82.95
74327;BME280;62745;51.060;13.786;2023-10-08T12:06:29;101140.59;;;17.06;83.46
74327;BME280;62745;51.060;13.786;2023-10-08T12:08:58;101143.56;;;16.78;86.54
74327;BME280;62745;51.060;13.786;2023-10-08T12:11:27;101145.06;;;16.02;92.34
74327;BME280;62745;51.060;13.786;2023-10-08T12:13:58;101146.44;;;15.71;92.01
74327;BME280;62745;51.060;13.786;2023-10-08T12:16:28;101135.81;;;15.50;94.45
74327;BME280;62745;51.060;13.786;2023-10-08T12:19:00;101140.09;;;16.18;88.19
74327;BME280;62745;51.060;13.786;2023-10-08T12:21:26;101127.88;;;15.35;85.81
74327;BME280;62745;51.060;13.786;2023-10-08T12:23:54;101134.41;;;15.60;85.37
74327;BME280;62745;51.060;13.786;2023-10-08T12:26:20;101135.09;;;16.09;80.87
74327;BME280;62745;51.060;13.786;2023-10-08T12:28:46;101136.13;;;16.41;81.25
74327;BME280;62745;51.060;13.786;2023-10-08T12:31:13;101129.88;;;16.73;80.53
74327;BME280;62745;51.060;13.786;2023-10-08T12:33:41;101124.13;;;17.59;79.24
74327;BME280;62745;51.060;13.786;2023-10-08T12:36:06;101132.19;;;17.28;77.06
74327;BME280;62745;51.060;13.786;2023-10-08T12:38:40;101136.75;;;16.23;81.83
74327;BME280;62745;51.060;13.786;2023-10-08T12:41:06;101152.94;;;16.16;88.66
74327;BME280;62745;51.060;13.786;2023-10-08T12:43:39;101145.25;;;16.27;87.79
74327;BME280;62745;51.060;13.786;2023-10-08T12:46:08;101143.38;;;16.53;86.71
74327;BME280;62745;51.060;13.786;2023-10-08T12:48:41;101139.44;;;16.69;88.60
74327;BME280;62745;51.060;13.786;2023-10-08T12:51:06;101140.91;;;16.72;85.28
74327;BME280;62745;51.060;13.786;2023-10-08T12:53:32;101147.75;;;16.68;84.44
74327;BME280;62745;51.060;13.786;2023-10-08T12:56:03;101146.69;;;16.42;83.97